sensor_id;sensor_type;location;lat;lon;timestamp;temperature;humidity
11284;DHT22;5698;47.332;11.180;2022-12-20T00:01:17;2.50;99.90
11284;DHT22;5698;47.332;11.180;2022-12-20T00:03:49;2.50;99.90
11284;DHT22;5698;47.332;11.180;2022-12-20T00:06:16;2.40;99.90
11284;DHT22;5698;47.332;11.180;2022-12-20T00:08:45;2.40;99.90
11284;DHT22;5698;47.332;11.180;2022-12-20T00:11:12;2.40;99.90
11284;DHT22;5698;47.332;11.180;2022-12-20T00:13:39;2.40;99.90
11284;DHT22;5698;47.332;11.180;2022-12-20T00:16:09;2.40;99.90
11284;DHT22;5698;47.332;11.180;2022-12-20T00:18:37;2.40;99.90
11284;DHT22;5698;47.332;11.180;2022-12-20T00:21:06;2.50;99.90
11284;DHT22;5698;47.332;11.180;2022-12-20T00:23:35;2.40;99.90
11284;DHT22;5698;47.332;11.180;2022-12-20T00:26:04;2.40;99.90
11284;DHT22;5698;47.332;11.180;2022-12-20T00:28:32;2.40;99.90
11284;DHT22;5698;47.332;11.180;2022-12-20T00:30:59;2.40;99.90
11284;DHT22;5698;47.332;11.180;2022-12-20T00:33:28;2.30;99.90
11284;DHT22;5698;47.332;11.180;2022-12-20T00:35:56;2.30;99.90
11284;DHT22;5698;47.332;11.180;2022-12-20T00:38:24;2.20;99.90
11284;DHT22;5698;47.332;11.180;2022-12-20T00:40:59;2.20;99.90
11284;DHT22;5698;47.332;11.180;2022-12-20T00:43:26;2.30;99.90
11284;DHT22;5698;47.332;11.180;2022-12-20T00:45:53;2.30;99.90
11284;DHT22;5698;47.332;11.180;2022-12-20T00:48:20;2.30;99.90
11284;DHT22;5698;47.332;11.180;2022-12-20T00:50:48;2.30;99.90
11284;DHT22;5698;47.332;11.180;2022-12-20T00:53:16;2.30;99.90
11284;DHT22;5698;47.332;11.180;2022-12-20T00:55:44;2.20;99.90
11284;DHT22;5698;47.332;11.180;2022-12-20T00:58:14;2.10;99.90
11284;DHT22;5698;47.332;11.180;2022-12-20T01:00:44;2.20;99.90
11284;DHT22;5698;47.332;11.180;2022-12-20T01:03:12;2.30;99.90
11284;DHT22;5698;47.332;11.180;2022-12-20T01:05:39;2.20;99.90
11284;DHT22;5698;47.332;11.180;2022-12-20T01:08:08;2.30;99.90
11284;DHT22;5698;47.332;11.180;2022-12-20T01:10:35;2.30;99.90
11284;DHT22;5698;47.332;11.180;2022-12-20T01:13:02;2.40;99.90
11284;DHT22;5698;47.332;11.180;2022-12-20T01:15:28;2.40;99.90
11284;DHT22;5698;47.332;11.180;2022-12-20T01:17:55;2.30;99.90
11284;DHT22;5698;47.332;11.180;2022-12-20T01:20:22;2.30;99.90
11284;DHT22;5698;47.332;11.180;2022-12-20T01:22:49;2.40;99.90
11284;DHT22;5698;47.332;11.180;2022-12-20T01:25:18;2.40;99.90
11284;DHT22;5698;47.332;11.180;2022-12-20T01:27:45;2.40;99.90
11284;DHT22;5698;47.332;11.180;2022-12-20T01:30:12;2.40;99.90
11284;DHT22;5698;47.332;11.180;2022-12-20T01:32:40;2.40;99.90
11284;DHT22;5698;47.332;11.180;2022-12-20T01:35:07;2.50;99.90
11284;DHT22;5698;47.332;11.180;2022-12-20T01:37:34;2.50;99.90
11284;DHT22;5698;47.332;11.180;2022-12-20T01:40:02;2.50;99.90
11284;DHT22;5698;47.332;11.180;2022-12-20T01:42:31;2.50;99.90
11284;DHT22;5698;47.332;11.180;2022-12-20T01:44:58;2.50;99.90
11284;DHT22;5698;47.332;11.180;2022-12-20T01:47:31;2.50;99.90
11284;DHT22;5698;47.332;11.180;2022-12-20T01:50:02;2.50;99.90
11284;DHT22;5698;47.332;11.180;2022-12-20T01:52:33;2.50;99.90
11284;DHT22;5698;47.332;11.180;2022-12-20T01:55:06;2.50;99.90
11284;DHT22;5698;47.332;11.180;2022-12-20T01:57:41;2.50;99.90
11284;DHT22;5698;47.332;11.180;2022-12-20T02:00:11;2.40;99.90
11284;DHT22;5698;47.332;11.180;2022-12-20T02:02:39;2.40;99.90
11284;DHT22;5698;47.332;11.180;2022-12-20T02:05:07;2.40;99.90
11284;DHT22;5698;47.332;11.180;2022-12-20T02:07:36;2.30;99.90
11284;DHT22;5698;47.332;11.180;2022-12-20T02:10:05;2.30;99.90
11284;DHT22;5698;47.332;11.180;2022-12-20T02:12:39;2.30;99.90
11284;DHT22;5698;47.332;11.180;2022-12-20T02:15:30;2.30;99.90
11284;DHT22;5698;47.332;11.180;2022-12-20T02:18:07;2.30;99.90
11284;DHT22;5698;47.332;11.180;2022-12-20T02:21:00;2.20;99.90
11284;DHT22;5698;47.332;11.180;2022-12-20T02:26:47;2.20;99.90
11284;DHT22;5698;47.332;11.180;2022-12-20T02:29:24;2.20;99.90
11284;DHT22;5698;47.332;11.180;2022-12-20T02:32:01;2.20;99.90
11284;DHT22;5698;47.332;11.180;2022-12-20T02:34:32;2.20;99.90
11284;DHT22;5698;47.332;11.180;2022-12-20T02:37:01;2.20;99.90
11284;DHT22;5698;47.332;11.180;2022-12-20T02:39:29;2.20;99.90
11284;DHT22;5698;47.332;11.180;2022-12-20T02:41:59;2.30;99.90
11284;DHT22;5698;47.332;11.180;2022-12-20T02:44:29;2.20;99.90
11284;DHT22;5698;47.332;11.180;2022-12-20T02:47:20;2.20;99.90
11284;DHT22;5698;47.332;11.180;2022-12-20T02:49:49;2.20;99.90
11284;DHT22;5698;47.332;11.180;2022-12-20T02:52:17;2.20;99.90
11284;DHT22;5698;47.332;11.180;2022-12-20T02:54:45;2.20;99.90
11284;DHT22;5698;47.332;11.180;2022-12-20T02:57:17;2.20;99.90
11284;DHT22;5698;47.332;11.180;2022-12-20T02:59:52;2.10;99.90
11284;DHT22;5698;47.332;11.180;2022-12-20T03:02:23;2.10;99.90
11284;DHT22;5698;47.332;11.180;2022-12-20T03:04:51;2.00;99.90
11284;DHT22;5698;47.332;11.180;2022-12-20T03:07:20;2.00;99.90
11284;DHT22;5698;47.332;11.180;2022-12-20T03:09:50;2.00;99.90
11284;DHT22;5698;47.332;11.180;2022-12-20T03:12:17;2.00;99.90
11284;DHT22;5698;47.332;11.180;2022-12-20T03:14:44;1.90;99.90
11284;DHT22;5698;47.332;11.180;2022-12-20T03:17:11;1.90;99.90
11284;DHT22;5698;47.332;11.180;2022-12-20T03:19:40;1.90;99.90
11284;DHT22;5698;47.332;11.180;2022-12-20T03:22:07;1.90;99.90
11284;DHT22;5698;47.332;11.180;2022-12-20T03:24:34;1.90;99.90
11284;DHT22;5698;47.332;11.180;2022-12-20T03:27:01;1.90;99.90
11284;DHT22;5698;47.332;11.180;2022-12-20T03:29:36;2.00;99.90
11284;DHT22;5698;47.332;11.180;2022-12-20T03:32:04;1.90;99.90
11284;DHT22;5698;47.332;11.180;2022-12-20T03:34:32;1.90;99.90
11284;DHT22;5698;47.332;11.180;2022-12-20T03:37:02;1.80;99.90
11284;DHT22;5698;47.332;11.180;2022-12-20T03:39:40;1.90;99.90
11284;DHT22;5698;47.332;11.180;2022-12-20T03:42:20;1.80;99.90
11284;DHT22;5698;47.332;11.180;2022-12-20T03:44:47;1.80;99.90
11284;DHT22;5698;47.332;11.180;2022-12-20T03:47:19;1.70;99.90
11284;DHT22;5698;47.332;11.180;2022-12-20T03:49:48;1.60;99.90
11284;DHT22;5698;47.332;11.180;2022-12-20T03:52:18;1.70;99.90
11284;DHT22;5698;47.332;11.180;2022-12-20T03:54:45;1.60;99.90
11284;DHT22;5698;47.332;11.180;2022-12-20T03:57:12;1.70;99.90
11284;DHT22;5698;47.332;11.180;2022-12-20T03:59:39;1.70;99.90
11284;DHT22;5698;47.332;11.180;2022-12-20T04:02:06;1.70;99.90
11284;DHT22;5698;47.332;11.180;2022-12-20T04:04:33;1.70;99.90
11284;DHT22;5698;47.332;11.180;2022-12-20T04:07:00;1.70;99.90
11284;DHT22;5698;47.332;11.180;2022-12-20T04:09:29;1.60;99.90
11284;DHT22;5698;47.332;11.180;2022-12-20T04:11:56;1.60;99.90
11284;DHT22;5698;47.332;11.180;2022-12-20T04:14:23;1.60;99.90
11284;DHT22;5698;47.332;11.180;2022-12-20T04:16:50;1.60;99.90
11284;DHT22;5698;47.332;11.180;2022-12-20T04:19:17;1.60;99.90
11284;DHT22;5698;47.332;11.180;2022-12-20T04:21:44;1.60;99.90
11284;DHT22;5698;47.332;11.180;2022-12-20T04:24:11;1.50;99.90
11284;DHT22;5698;47.332;11.180;2022-12-20T04:26:40;1.50;99.90
11284;DHT22;5698;47.332;11.180;2022-12-20T04:29:07;1.50;99.90
11284;DHT22;5698;47.332;11.180;2022-12-20T04:31:36;1.50;99.90
11284;DHT22;5698;47.332;11.180;2022-12-20T04:34:03;1.40;99.90
11284;DHT22;5698;47.332;11.180;2022-12-20T04:36:30;1.40;99.90
11284;DHT22;5698;47.332;11.180;2022-12-20T04:38:58;1.40;99.90
11284;DHT22;5698;47.332;11.180;2022-12-20T04:41:25;1.40;99.90
11284;DHT22;5698;47.332;11.180;2022-12-20T04:43:54;1.40;99.90
11284;DHT22;5698;47.332;11.180;2022-12-20T04:46:23;1.40;99.90
11284;DHT22;5698;47.332;11.180;2022-12-20T04:48:51;1.40;99.90
11284;DHT22;5698;47.332;11.180;2022-12-20T04:51:18;1.40;99.90
11284;DHT22;5698;47.332;11.180;2022-12-20T04:53:47;1.40;99.90
11284;DHT22;5698;47.332;11.180;2022-12-20T04:56:17;1.40;99.90
11284;DHT22;5698;47.332;11.180;2022-12-20T04:58:57;1.30;99.90
11284;DHT22;5698;47.332;11.180;2022-12-20T05:01:24;1.30;99.90
11284;DHT22;5698;47.332;11.180;2022-12-20T05:03:52;1.30;99.90
11284;DHT22;5698;47.332;11.180;2022-12-20T05:06:28;1.30;99.90
11284;DHT22;5698;47.332;11.180;2022-12-20T05:08:56;1.30;99.90
11284;DHT22;5698;47.332;11.180;2022-12-20T05:11:26;1.30;99.90
11284;DHT22;5698;47.332;11.180;2022-12-20T05:13:54;1.30;99.90
11284;DHT22;5698;47.332;11.180;2022-12-20T05:16:21;1.30;99.90
11284;DHT22;5698;47.332;11.180;2022-12-20T05:18:49;1.30;99.90
11284;DHT22;5698;47.332;11.180;2022-12-20T05:21:16;1.30;99.90
11284;DHT22;5698;47.332;11.180;2022-12-20T05:24:01;1.30;99.90
11284;DHT22;5698;47.332;11.180;2022-12-20T05:26:45;1.30;99.90
11284;DHT22;5698;47.332;11.180;2022-12-20T05:29:13;1.30;99.90
11284;DHT22;5698;47.332;11.180;2022-12-20T05:31:41;1.30;99.90
11284;DHT22;5698;47.332;11.180;2022-12-20T05:34:09;1.30;99.90
11284;DHT22;5698;47.332;11.180;2022-12-20T05:36:36;1.40;99.90
11284;DHT22;5698;47.332;11.180;2022-12-20T05:39:03;1.40;99.90
11284;DHT22;5698;47.332;11.180;2022-12-20T05:41:32;1.40;99.90
11284;DHT22;5698;47.332;11.180;2022-12-20T05:43:59;1.40;99.90
11284;DHT22;5698;47.332;11.180;2022-12-20T05:46:32;1.40;99.90
11284;DHT22;5698;47.332;11.180;2022-12-20T05:49:00;1.40;99.90
11284;DHT22;5698;47.332;11.180;2022-12-20T05:51:27;1.40;99.90
11284;DHT22;5698;47.332;11.180;2022-12-20T05:53:57;1.40;99.90
11284;DHT22;5698;47.332;11.180;2022-12-20T05:56:25;1.50;99.90
11284;DHT22;5698;47.332;11.180;2022-12-20T05:59:03;1.50;99.90
11284;DHT22;5698;47.332;11.180;2022-12-20T06:01:35;1.50;99.90
11284;DHT22;5698;47.332;11.180;2022-12-20T06:04:29;1.50;99.90
11284;DHT22;5698;47.332;11.180;2022-12-20T06:07:08;1.50;99.90
11284;DHT22;5698;47.332;11.180;2022-12-20T06:09:44;1.50;99.90
11284;DHT22;5698;47.332;11.180;2022-12-20T06:12:16;1.40;99.90
11284;DHT22;5698;47.332;11.180;2022-12-20T06:14:49;1.40;99.90
11284;DHT22;5698;47.332;11.180;2022-12-20T06:17:18;1.30;99.90
11284;DHT22;5698;47.332;11.180;2022-12-20T06:19:52;1.40;99.90
11284;DHT22;5698;47.332;11.180;2022-12-20T06:22:19;1.40;99.90
11284;DHT22;5698;47.332;11.180;2022-12-20T06:24:46;1.50;99.90
11284;DHT22;5698;47.332;11.180;2022-12-20T06:27:13;1.60;99.90
11284;DHT22;5698;47.332;11.180;2022-12-20T06:29:40;1.70;99.90
11284;DHT22;5698;47.332;11.180;2022-12-20T06:32:18;1.70;99.90
11284;DHT22;5698;47.332;11.180;2022-12-20T06:34:45;1.70;99.90
11284;DHT22;5698;47.332;11.180;2022-12-20T06:37:12;1.70;99.90
11284;DHT22;5698;47.332;11.180;2022-12-20T06:39:40;1.80;99.90
11284;DHT22;5698;47.332;11.180;2022-12-20T06:42:13;1.80;99.90
11284;DHT22;5698;47.332;11.180;2022-12-20T06:44:41;1.80;99.90
11284;DHT22;5698;47.332;11.180;2022-12-20T06:47:08;1.70;99.90
11284;DHT22;5698;47.332;11.180;2022-12-20T06:49:39;1.80;99.90
11284;DHT22;5698;47.332;11.180;2022-12-20T06:52:06;1.80;99.90
11284;DHT22;5698;47.332;11.180;2022-12-20T06:54:39;1.90;99.90
11284;DHT22;5698;47.332;11.180;2022-12-20T06:57:06;1.90;99.90
11284;DHT22;5698;47.332;11.180;2022-12-20T06:59:33;1.90;99.90
11284;DHT22;5698;47.332;11.180;2022-12-20T07:02:01;1.90;99.90
11284;DHT22;5698;47.332;11.180;2022-12-20T07:04:28;1.90;99.90
11284;DHT22;5698;47.332;11.180;2022-12-20T07:06:58;1.90;99.90
11284;DHT22;5698;47.332;11.180;2022-12-20T07:09:26;1.90;99.90
11284;DHT22;5698;47.332;11.180;2022-12-20T07:11:53;1.90;99.90
11284;DHT22;5698;47.332;11.180;2022-12-20T07:14:20;1.90;99.90
11284;DHT22;5698;47.332;11.180;2022-12-20T07:16:48;1.90;99.90
11284;DHT22;5698;47.332;11.180;2022-12-20T07:19:15;1.90;99.90
11284;DHT22;5698;47.332;11.180;2022-12-20T07:22:00;1.80;99.90
11284;DHT22;5698;47.332;11.180;2022-12-20T07:24:28;1.70;99.90
11284;DHT22;5698;47.332;11.180;2022-12-20T07:26:55;1.80;99.90
11284;DHT22;5698;47.332;11.180;2022-12-20T07:29:23;1.80;99.90
11284;DHT22;5698;47.332;11.180;2022-12-20T07:31:50;1.80;99.90
11284;DHT22;5698;47.332;11.180;2022-12-20T07:34:17;1.80;99.90
11284;DHT22;5698;47.332;11.180;2022-12-20T07:36:52;1.80;99.90
11284;DHT22;5698;47.332;11.180;2022-12-20T07:39:42;1.80;99.90
11284;DHT22;5698;47.332;11.180;2022-12-20T07:45:02;2.00;99.90
11284;DHT22;5698;47.332;11.180;2022-12-20T07:47:32;2.00;99.90
11284;DHT22;5698;47.332;11.180;2022-12-20T07:50:01;2.00;99.90
11284;DHT22;5698;47.332;11.180;2022-12-20T07:52:35;2.00;99.90
11284;DHT22;5698;47.332;11.180;2022-12-20T07:55:11;2.10;99.90
11284;DHT22;5698;47.332;11.180;2022-12-20T07:57:51;2.10;99.90
11284;DHT22;5698;47.332;11.180;2022-12-20T08:00:23;2.10;99.90
11284;DHT22;5698;47.332;11.180;2022-12-20T08:02:56;2.10;99.90
11284;DHT22;5698;47.332;11.180;2022-12-20T08:05:26;2.20;99.90
11284;DHT22;5698;47.332;11.180;2022-12-20T08:07:58;2.10;99.90
11284;DHT22;5698;47.332;11.180;2022-12-20T08:10:36;2.30;99.90
11284;DHT22;5698;47.332;11.180;2022-12-20T08:13:13;2.40;99.90
11284;DHT22;5698;47.332;11.180;2022-12-20T08:15:55;2.50;99.90
11284;DHT22;5698;47.332;11.180;2022-12-20T08:18:25;2.50;99.90
11284;DHT22;5698;47.332;11.180;2022-12-20T08:21:00;2.50;99.90
11284;DHT22;5698;47.332;11.180;2022-12-20T08:23:45;2.40;99.90
11284;DHT22;5698;47.332;11.180;2022-12-20T08:26:20;2.60;99.90
11284;DHT22;5698;47.332;11.180;2022-12-20T08:28:47;2.70;99.90
11284;DHT22;5698;47.332;11.180;2022-12-20T08:31:14;2.80;99.90
11284;DHT22;5698;47.332;11.180;2022-12-20T08:33:41;2.90;99.90
11284;DHT22;5698;47.332;11.180;2022-12-20T08:36:09;3.00;99.90
11284;DHT22;5698;47.332;11.180;2022-12-20T08:38:37;3.10;99.90
11284;DHT22;5698;47.332;11.180;2022-12-20T08:41:05;3.30;99.90
11284;DHT22;5698;47.332;11.180;2022-12-20T08:43:34;3.40;99.90
11284;DHT22;5698;47.332;11.180;2022-12-20T08:46:01;3.50;99.90
11284;DHT22;5698;47.332;11.180;2022-12-20T08:48:29;3.60;99.90
11284;DHT22;5698;47.332;11.180;2022-12-20T08:50:58;3.70;99.90
11284;DHT22;5698;47.332;11.180;2022-12-20T08:53:26;3.80;99.90
11284;DHT22;5698;47.332;11.180;2022-12-20T08:55:53;3.90;99.90
11284;DHT22;5698;47.332;11.180;2022-12-20T08:58:20;4.00;99.90
11284;DHT22;5698;47.332;11.180;2022-12-20T09:00:48;4.10;99.90
11284;DHT22;5698;47.332;11.180;2022-12-20T09:03:16;4.20;99.90
11284;DHT22;5698;47.332;11.180;2022-12-20T09:05:44;4.40;99.90
11284;DHT22;5698;47.332;11.180;2022-12-20T09:08:12;4.40;99.90
11284;DHT22;5698;47.332;11.180;2022-12-20T09:10:39;4.40;99.90
11284;DHT22;5698;47.332;11.180;2022-12-20T09:13:09;4.50;99.90
11284;DHT22;5698;47.332;11.180;2022-12-20T09:16:35;4.50;99.90
11284;DHT22;5698;47.332;11.180;2022-12-20T09:19:16;4.70;99.90
11284;DHT22;5698;47.332;11.180;2022-12-20T09:25:29;4.80;99.90
11284;DHT22;5698;47.332;11.180;2022-12-20T09:28:37;4.90;99.90
11284;DHT22;5698;47.332;11.180;2022-12-20T09:31:24;4.90;99.90
11284;DHT22;5698;47.332;11.180;2022-12-20T09:33:52;5.00;99.90
11284;DHT22;5698;47.332;11.180;2022-12-20T09:36:26;5.10;99.90
11284;DHT22;5698;47.332;11.180;2022-12-20T09:38:56;5.10;99.90
11284;DHT22;5698;47.332;11.180;2022-12-20T09:41:31;5.20;99.90
11284;DHT22;5698;47.332;11.180;2022-12-20T09:44:26;5.30;99.90
11284;DHT22;5698;47.332;11.180;2022-12-20T09:47:43;5.30;99.90
11284;DHT22;5698;47.332;11.180;2022-12-20T09:50:33;5.30;99.90
11284;DHT22;5698;47.332;11.180;2022-12-20T09:53:27;5.40;99.90
11284;DHT22;5698;47.332;11.180;2022-12-20T09:56:12;5.50;99.90
11284;DHT22;5698;47.332;11.180;2022-12-20T09:59:02;5.40;99.90
11284;DHT22;5698;47.332;11.180;2022-12-20T10:01:33;5.60;99.90
11284;DHT22;5698;47.332;11.180;2022-12-20T10:04:05;5.60;99.90
11284;DHT22;5698;47.332;11.180;2022-12-20T10:13:12;5.70;99.90
11284;DHT22;5698;47.332;11.180;2022-12-20T10:15:51;5.70;99.90
11284;DHT22;5698;47.332;11.180;2022-12-20T10:18:42;5.70;99.90
11284;DHT22;5698;47.332;11.180;2022-12-20T10:21:18;5.80;99.90
11284;DHT22;5698;47.332;11.180;2022-12-20T10:23:57;5.80;99.90
11284;DHT22;5698;47.332;11.180;2022-12-20T10:26:26;5.90;99.90
11284;DHT22;5698;47.332;11.180;2022-12-20T10:28:53;5.90;99.90
11284;DHT22;5698;47.332;11.180;2022-12-20T10:31:20;6.00;99.90
11284;DHT22;5698;47.332;11.180;2022-12-20T10:33:47;6.10;99.90
11284;DHT22;5698;47.332;11.180;2022-12-20T10:36:20;6.30;99.90
11284;DHT22;5698;47.332;11.180;2022-12-20T10:38:51;6.40;99.90
11284;DHT22;5698;47.332;11.180;2022-12-20T10:41:20;6.50;99.90
11284;DHT22;5698;47.332;11.180;2022-12-20T10:43:52;6.80;99.90
11284;DHT22;5698;47.332;11.180;2022-12-20T10:46:19;7.00;99.90
11284;DHT22;5698;47.332;11.180;2022-12-20T10:48:47;7.20;99.90
11284;DHT22;5698;47.332;11.180;2022-12-20T10:51:22;7.50;99.90
11284;DHT22;5698;47.332;11.180;2022-12-20T10:53:51;7.80;99.90
11284;DHT22;5698;47.332;11.180;2022-12-20T10:56:21;8.00;99.90
11284;DHT22;5698;47.332;11.180;2022-12-20T10:58:53;8.30;99.90
11284;DHT22;5698;47.332;11.180;2022-12-20T11:01:22;8.40;99.90
11284;DHT22;5698;47.332;11.180;2022-12-20T11:03:53;8.50;99.90
11284;DHT22;5698;47.332;11.180;2022-12-20T11:06:25;8.60;99.90
11284;DHT22;5698;47.332;11.180;2022-12-20T11:08:52;8.70;99.90
11284;DHT22;5698;47.332;11.180;2022-12-20T11:11:21;8.80;99.90
11284;DHT22;5698;47.332;11.180;2022-12-20T11:13:50;8.90;99.90
11284;DHT22;5698;47.332;11.180;2022-12-20T11:16:36;9.00;99.90
11284;DHT22;5698;47.332;11.180;2022-12-20T11:19:39;9.20;99.90
11284;DHT22;5698;47.332;11.180;2022-12-20T11:22:22;9.30;99.90
11284;DHT22;5698;47.332;11.180;2022-12-20T11:24:57;9.40;99.90
11284;DHT22;5698;47.332;11.180;2022-12-20T11:27:31;9.40;99.90
11284;DHT22;5698;47.332;11.180;2022-12-20T11:30:13;9.40;99.90
11284;DHT22;5698;47.332;11.180;2022-12-20T11:33:11;9.50;99.90
11284;DHT22;5698;47.332;11.180;2022-12-20T11:35:48;9.40;99.90
11284;DHT22;5698;47.332;11.180;2022-12-20T11:38:35;9.40;99.90
11284;DHT22;5698;47.332;11.180;2022-12-20T11:41:14;9.50;99.90
11284;DHT22;5698;47.332;11.180;2022-12-20T11:43:55;9.10;99.90
11284;DHT22;5698;47.332;11.180;2022-12-20T11:46:35;9.00;99.90
11284;DHT22;5698;47.332;11.180;2022-12-20T11:49:19;9.00;99.90
11284;DHT22;5698;47.332;11.180;2022-12-20T11:51:58;8.80;99.90
11284;DHT22;5698;47.332;11.180;2022-12-20T11:54:35;8.80;99.90
11284;DHT22;5698;47.332;11.180;2022-12-20T11:57:13;8.90;99.90
11284;DHT22;5698;47.332;11.180;2022-12-20T11:59:46;8.90;99.90
11284;DHT22;5698;47.332;11.180;2022-12-20T12:02:19;8.80;99.90
11284;DHT22;5698;47.332;11.180;2022-12-20T12:04:53;8.80;99.90
11284;DHT22;5698;47.332;11.180;2022-12-20T12:07:24;8.90;99.90
11284;DHT22;5698;47.332;11.180;2022-12-20T12:09:57;8.80;99.90
11284;DHT22;5698;47.332;11.180;2022-12-20T12:12:26;8.80;99.90
11284;DHT22;5698;47.332;11.180;2022-12-20T12:14:58;8.70;99.90
11284;DHT22;5698;47.332;11.180;2022-12-20T12:17:31;8.50;99.90
11284;DHT22;5698;47.332;11.180;2022-12-20T12:20:21;8.30;99.90
11284;DHT22;5698;47.332;11.180;2022-12-20T12:22:53;8.40;99.90
11284;DHT22;5698;47.332;11.180;2022-12-20T12:25:23;8.30;99.90
11284;DHT22;5698;47.332;11.180;2022-12-20T12:27:50;8.30;99.90
11284;DHT22;5698;47.332;11.180;2022-12-20T12:30:17;8.20;99.90
11284;DHT22;5698;47.332;11.180;2022-12-20T12:32:48;8.20;99.90
11284;DHT22;5698;47.332;11.180;2022-12-20T12:44:32;8.00;99.90
11284;DHT22;5698;47.332;11.180;2022-12-20T12:47:07;7.90;99.90
11284;DHT22;5698;47.332;11.180;2022-12-20T12:49:38;7.90;99.90
11284;DHT22;5698;47.332;11.180;2022-12-20T12:52:06;7.80;99.90
11284;DHT22;5698;47.332;11.180;2022-12-20T12:54:36;7.80;99.90
11284;DHT22;5698;47.332;11.180;2022-12-20T12:57:10;7.70;99.90
11284;DHT22;5698;47.332;11.180;2022-12-20T12:59:44;7.60;99.90
11284;DHT22;5698;47.332;11.180;2022-12-20T13:02:48;7.50;99.90
11284;DHT22;5698;47.332;11.180;2022-12-20T13:05:33;7.40;99.90
11284;DHT22;5698;47.332;11.180;2022-12-20T13:08:01;7.40;99.90
11284;DHT22;5698;47.332;11.180;2022-12-20T13:10:55;7.40;99.90
11284;DHT22;5698;47.332;11.180;2022-12-20T13:13:23;7.30;99.90
11284;DHT22;5698;47.332;11.180;2022-12-20T13:16:10;7.30;99.90
11284;DHT22;5698;47.332;11.180;2022-12-20T13:18:38;7.30;99.90
11284;DHT22;5698;47.332;11.180;2022-12-20T13:21:35;7.20;99.90
11284;DHT22;5698;47.332;11.180;2022-12-20T13:24:37;7.20;99.90
11284;DHT22;5698;47.332;11.180;2022-12-20T13:27:34;7.20;99.90
11284;DHT22;5698;47.332;11.180;2022-12-20T13:30:25;7.20;99.90
11284;DHT22;5698;47.332;11.180;2022-12-20T13:36:01;7.00;99.90
11284;DHT22;5698;47.332;11.180;2022-12-20T13:38:39;6.90;99.90
11284;DHT22;5698;47.332;11.180;2022-12-20T13:41:24;6.80;99.90
11284;DHT22;5698;47.332;11.180;2022-12-20T13:43:53;6.70;99.90
11284;DHT22;5698;47.332;11.180;2022-12-20T13:46:25;6.60;99.90
11284;DHT22;5698;47.332;11.180;2022-12-20T13:48:56;6.40;99.90
11284;DHT22;5698;47.332;11.180;2022-12-20T13:51:27;6.20;99.90
11284;DHT22;5698;47.332;11.180;2022-12-20T13:53:55;6.10;99.90
11284;DHT22;5698;47.332;11.180;2022-12-20T13:56:44;5.90;99.90
11284;DHT22;5698;47.332;11.180;2022-12-20T13:59:16;5.90;99.90
11284;DHT22;5698;47.332;11.180;2022-12-20T14:01:48;5.80;99.90
11284;DHT22;5698;47.332;11.180;2022-12-20T14:04:17;5.70;99.90
11284;DHT22;5698;47.332;11.180;2022-12-20T14:06:50;5.70;99.90
11284;DHT22;5698;47.332;11.180;2022-12-20T14:09:27;5.70;99.90
11284;DHT22;5698;47.332;11.180;2022-12-20T14:12:02;5.70;99.90
11284;DHT22;5698;47.332;11.180;2022-12-20T14:14:29;5.70;99.90
11284;DHT22;5698;47.332;11.180;2022-12-20T14:17:14;5.70;99.90
11284;DHT22;5698;47.332;11.180;2022-12-20T14:19:42;5.70;99.90
11284;DHT22;5698;47.332;11.180;2022-12-20T14:22:12;5.60;99.90
11284;DHT22;5698;47.332;11.180;2022-12-20T14:24:42;5.60;99.90
11284;DHT22;5698;47.332;11.180;2022-12-20T14:27:11;5.60;99.90
11284;DHT22;5698;47.332;11.180;2022-12-20T14:29:40;5.60;99.90
11284;DHT22;5698;47.332;11.180;2022-12-20T14:32:17;5.50;99.90
11284;DHT22;5698;47.332;11.180;2022-12-20T14:34:45;5.50;99.90
11284;DHT22;5698;47.332;11.180;2022-12-20T14:37:32;5.50;99.90
11284;DHT22;5698;47.332;11.180;2022-12-20T14:40:22;5.50;99.90
11284;DHT22;5698;47.332;11.180;2022-12-20T14:42:49;5.50;99.90
11284;DHT22;5698;47.332;11.180;2022-12-20T14:45:22;5.40;99.90
11284;DHT22;5698;47.332;11.180;2022-12-20T14:47:55;5.40;99.90
11284;DHT22;5698;47.332;11.180;2022-12-20T14:50:27;5.30;99.90
11284;DHT22;5698;47.332;11.180;2022-12-20T14:52:56;5.30;99.90
11284;DHT22;5698;47.332;11.180;2022-12-20T14:55:26;5.20;99.90
11284;DHT22;5698;47.332;11.180;2022-12-20T14:57:56;5.10;99.90
11284;DHT22;5698;47.332;11.180;2022-12-20T15:00:25;5.20;99.90
11284;DHT22;5698;47.332;11.180;2022-12-20T15:03:01;5.20;99.90
11284;DHT22;5698;47.332;11.180;2022-12-20T15:05:44;5.10;99.90
11284;DHT22;5698;47.332;11.180;2022-12-20T15:08:14;5.10;99.90
11284;DHT22;5698;47.332;11.180;2022-12-20T15:10:47;5.00;99.90
11284;DHT22;5698;47.332;11.180;2022-12-20T15:13:19;5.00;99.90
11284;DHT22;5698;47.332;11.180;2022-12-20T15:15:46;5.00;99.90
11284;DHT22;5698;47.332;11.180;2022-12-20T15:18:15;4.90;99.90
11284;DHT22;5698;47.332;11.180;2022-12-20T15:20:43;4.80;99.90
11284;DHT22;5698;47.332;11.180;2022-12-20T15:23:16;4.80;99.90
11284;DHT22;5698;47.332;11.180;2022-12-20T15:25:45;4.80;99.90
11284;DHT22;5698;47.332;11.180;2022-12-20T15:28:14;4.70;99.90
11284;DHT22;5698;47.332;11.180;2022-12-20T15:30:51;4.70;99.90
11284;DHT22;5698;47.332;11.180;2022-12-20T15:33:29;4.70;99.90
11284;DHT22;5698;47.332;11.180;2022-12-20T15:35:56;4.70;99.90
11284;DHT22;5698;47.332;11.180;2022-12-20T15:38:26;4.60;99.90
11284;DHT22;5698;47.332;11.180;2022-12-20T15:41:01;4.60;99.90
11284;DHT22;5698;47.332;11.180;2022-12-20T15:43:33;4.60;99.90
11284;DHT22;5698;47.332;11.180;2022-12-20T15:46:01;4.60;99.90
11284;DHT22;5698;47.332;11.180;2022-12-20T15:48:28;4.60;99.90
11284;DHT22;5698;47.332;11.180;2022-12-20T15:50:57;4.70;99.90
11284;DHT22;5698;47.332;11.180;2022-12-20T15:53:30;4.70;99.90
11284;DHT22;5698;47.332;11.180;2022-12-20T15:55:58;4.70;99.90
11284;DHT22;5698;47.332;11.180;2022-12-20T15:58:26;4.70;99.90
11284;DHT22;5698;47.332;11.180;2022-12-20T16:00:54;4.80;99.90
11284;DHT22;5698;47.332;11.180;2022-12-20T16:03:26;4.70;99.90
11284;DHT22;5698;47.332;11.180;2022-12-20T16:05:55;4.70;99.90
11284;DHT22;5698;47.332;11.180;2022-12-20T16:08:22;4.80;99.90
11284;DHT22;5698;47.332;11.180;2022-12-20T16:10:51;4.80;99.90
11284;DHT22;5698;47.332;11.180;2022-12-20T16:13:21;4.90;99.90
11284;DHT22;5698;47.332;11.180;2022-12-20T16:15:48;4.90;99.90
11284;DHT22;5698;47.332;11.180;2022-12-20T16:18:16;4.70;99.90
11284;DHT22;5698;47.332;11.180;2022-12-20T16:20:43;4.60;99.90
11284;DHT22;5698;47.332;11.180;2022-12-20T16:23:15;4.60;99.90
11284;DHT22;5698;47.332;11.180;2022-12-20T16:25:53;4.70;99.90
11284;DHT22;5698;47.332;11.180;2022-12-20T16:28:21;4.60;99.90
11284;DHT22;5698;47.332;11.180;2022-12-20T16:30:48;4.70;99.90
11284;DHT22;5698;47.332;11.180;2022-12-20T16:33:19;4.60;99.90
11284;DHT22;5698;47.332;11.180;2022-12-20T16:35:46;4.50;99.90
11284;DHT22;5698;47.332;11.180;2022-12-20T16:38:13;4.50;99.90
11284;DHT22;5698;47.332;11.180;2022-12-20T16:40:40;4.50;99.90
11284;DHT22;5698;47.332;11.180;2022-12-20T16:43:13;4.60;99.90
11284;DHT22;5698;47.332;11.180;2022-12-20T16:45:48;4.60;99.90